Time;durP1;ratioP1;P1;durP2;ratioP2;P2;SDS_P1;SDS_P2;PMS_P1;PMS_P2;Temp;Humidity;BMP_temperature;BMP_pressure;BME280_temperature;BME280_humidity;BME280_pressure;Samples;Min_cycle;Max_cycle;Signal;HPM_P1;HPM_P2
2022/01/27 00:02:47;;;;;;;54.70;18.55;;;;;;;3.70;100.00;102933.13;5291435;28;20118;-80
2022/01/27 00:05:20;;;;;;;55.53;19.63;;;;;;;3.72;100.00;102923.31;5291477;28;20031;-82
2022/01/27 00:08:18;;;;;;;47.80;18.38;;;;;;;3.61;100.00;102923.81;5272880;28;20083;-81
2022/01/27 00:13:19;;;;;;;53.08;18.85;;;;;;;3.67;100.00;102911.22;5288017;28;20084;-81
2022/01/27 00:15:59;;;;;;;54.10;19.70;;;;;;;3.71;100.00;102908.31;5292038;28;20257;-81
2022/01/27 00:18:30;;;;;;;58.45;20.55;;;;;;;3.72;100.00;102912.72;5273109;28;20026;-80
2022/01/27 00:21:00;;;;;;;53.97;20.15;;;;;;;3.71;100.00;102905.66;5290736;28;20023;-83
2022/01/27 00:23:31;;;;;;;49.75;18.75;;;;;;;3.76;100.00;102908.09;5272115;28;20020;-82
2022/01/27 00:26:02;;;;;;;53.35;19.58;;;;;;;3.74;100.00;102900.22;5290166;28;20016;-83
2022/01/27 00:28:33;;;;;;;50.38;18.70;;;;;;;3.73;100.00;102892.34;5290856;28;20031;-83
2022/01/27 00:31:03;;;;;;;50.75;19.38;;;;;;;3.71;100.00;102887.06;5289616;28;20331;-81
2022/01/27 00:33:34;;;;;;;52.05;20.27;;;;;;;3.72;100.00;102890.63;5272310;28;20068;-82
2022/01/27 00:36:05;;;;;;;44.47;19.00;;;;;;;3.73;100.00;102884.38;5270461;28;20035;-83
2022/01/27 00:38:36;;;;;;;51.25;19.77;;;;;;;3.78;100.00;102885.00;5253116;28;20487;-82
2022/01/27 00:41:07;;;;;;;56.17;19.58;;;;;;;3.75;100.00;102880.69;5287856;28;20119;-82
2022/01/27 00:43:37;;;;;;;55.03;18.83;;;;;;;3.82;100.00;102878.63;5288633;28;20034;-82
2022/01/27 00:46:12;;;;;;;59.85;18.92;;;;;;;3.78;100.00;102877.91;5269844;28;20030;-82
2022/01/27 00:48:44;;;;;;;;;;;;;;;3.79;100.00;102881.41;5254228;28;20034;-83
2022/01/27 00:51:21;;;;;;;49.60;19.38;;;;;;;3.76;100.00;102887.72;5269475;28;19908;-83
2022/01/27 00:56:28;;;;;;;54.92;18.40;;;;;;;3.79;100.00;102884.94;5287122;28;20035;-83
2022/01/27 01:01:52;;;;;;;50.13;18.60;;;;;;;3.79;100.00;102857.53;5286783;28;20027;-83
2022/01/27 01:04:29;;;;;;;51.47;18.48;;;;;;;3.83;100.00;102865.28;5287235;28;20023;-83
2022/01/27 01:07:00;;;;;;;51.72;19.65;;;;;;;3.85;100.00;102863.38;5287109;28;20035;-83
2022/01/27 01:13:22;;;;;;;47.22;17.70;;;;;;;3.87;100.00;102850.91;5277370;28;20027;-83
2022/01/27 01:15:30;;;;;;;46.83;18.33;;;;;;;3.82;100.00;102847.63;5273269;28;20023;-83
2022/01/27 01:29:28;;;;;;;45.45;17.88;;;;;;;3.89;100.00;102824.28;5285740;28;20467;-83
2022/01/27 01:34:51;;;;;;;47.83;18.48;;;;;;;3.90;100.00;102818.88;5274141;28;20016;-82
2022/01/27 01:37:21;;;;;;;44.97;17.98;;;;;;;3.91;100.00;102814.44;5268445;28;20028;-82
2022/01/27 01:39:52;;;;;;;50.15;18.48;;;;;;;3.97;100.00;102814.16;5268263;28;20407;-83
2022/01/27 01:42:22;;;;;;;47.55;18.85;;;;;;;3.91;100.00;102806.47;5289727;28;20027;-83
2022/01/27 01:44:53;;;;;;;51.92;18.15;;;;;;;3.93;100.00;102801.09;5290827;28;20470;-82
2022/01/27 01:47:26;;;;;;;41.95;18.27;;;;;;;3.93;100.00;102804.59;5290416;28;20023;-83
2022/01/27 01:49:56;;;;;;;49.88;18.90;;;;;;;3.95;100.00;102801.88;5272234;28;20080;-83
2022/01/27 01:52:27;;;;;;;51.15;19.17;;;;;;;3.96;100.00;102804.44;5291201;28;20016;-82
2022/01/27 01:54:57;;;;;;;48.42;18.67;;;;;;;3.97;100.00;102805.31;5272064;28;20028;-83
2022/01/27 01:57:28;;;;;;;45.15;17.67;;;;;;;4.01;100.00;102804.22;5272521;28;20016;-83
2022/01/27 01:59:59;;;;;;;52.28;19.63;;;;;;;4.01;100.00;102799.75;5272310;28;20015;-83
2022/01/27 02:02:29;;;;;;;48.72;18.48;;;;;;;4.06;100.00;102805.69;5290638;28;20031;-83
2022/01/27 02:05:00;;;;;;;48.08;17.80;;;;;;;4.06;100.00;102802.19;5290472;28;20024;-82
2022/01/27 02:07:44;;;;;;;50.50;17.65;;;;;;;4.07;100.00;102795.97;5290715;28;20023;-83
2022/01/27 02:18:46;;;;;;;49.35;18.05;;;;;;;3.98;100.00;102785.78;5278714;28;20100;-80
2022/01/27 02:21:27;;;;;;;52.90;19.08;;;;;;;3.98;100.00;102791.09;5273105;28;20020;-78
2022/01/27 02:24:14;;;;;;;42.20;18.23;;;;;;;4.01;100.00;102783.81;5289444;28;20042;-78
2022/01/27 02:26:51;;;;;;;49.38;18.05;;;;;;;4.05;100.00;102779.22;5290402;28;20019;-79
2022/01/27 02:29:32;;;;;;;56.80;19.65;;;;;;;4.13;100.00;102771.75;5287480;28;20027;-79
2022/01/27 02:32:03;;;;;;;43.78;17.95;;;;;;;4.14;100.00;102774.31;5269969;28;20027;-82
2022/01/27 02:34:34;;;;;;;52.47;18.38;;;;;;;4.08;100.00;102764.00;5271082;28;20031;-82
2022/01/27 02:37:05;;;;;;;43.30;17.13;;;;;;;4.09;100.00;102762.19;5289681;28;20016;-79
2022/01/27 02:39:36;;;;;;;52.97;17.60;;;;;;;4.15;100.00;102759.22;5257597;28;20035;-79
2022/01/27 02:42:34;;;;;;;49.83;18.55;;;;;;;4.18;100.00;102759.09;5289440;28;20031;-79
2022/01/27 02:45:42;;;;;;;46.97;17.73;;;;;;;4.16;100.00;102766.25;5289554;28;20459;-80
2022/01/27 02:48:12;;;;;;;47.42;17.83;;;;;;;4.21;100.00;102753.59;5279594;28;20035;-80
2022/01/27 02:50:44;;;;;;;45.35;17.67;;;;;;;4.18;100.00;102736.97;5289120;28;20031;-79
2022/01/27 02:53:20;;;;;;;46.90;17.20;;;;;;;4.21;100.00;102720.84;5270799;28;20229;-79
2022/01/27 02:55:51;;;;;;;46.90;16.48;;;;;;;4.30;100.00;102731.00;5288856;28;20035;-79
2022/01/27 02:58:22;;;;;;;44.78;16.95;;;;;;;4.28;100.00;102720.47;5288665;28;20020;-79
2022/01/27 03:00:56;;;;;;;51.65;17.85;;;;;;;4.29;100.00;102724.00;5271377;28;20030;-79
2022/01/27 03:03:26;;;;;;;42.33;16.58;;;;;;;4.33;100.00;102729.06;5270855;28;20471;-80
2022/01/27 03:05:57;;;;;;;48.00;17.05;;;;;;;4.34;100.00;102720.16;5270422;28;20615;-81
2022/01/27 03:08:28;;;;;;;50.65;17.55;;;;;;;4.39;100.00;102718.13;5253617;28;20028;-82
2022/01/27 03:11:06;;;;;;;38.22;16.05;;;;;;;4.38;100.00;102715.53;5279503;28;20419;-84
2022/01/27 03:13:37;;;;;;;48.90;16.73;;;;;;;4.43;100.00;102712.66;5290586;28;20027;-80
2022/01/27 03:16:09;;;;;;;46.55;16.40;;;;;;;4.37;100.00;102708.53;5291262;28;20027;-80
2022/01/27 03:18:39;;;;;;;46.45;16.95;;;;;;;4.38;100.00;102708.44;5288977;28;20620;-80
2022/01/27 03:21:10;;;;;;;49.63;17.23;;;;;;;4.36;100.00;102712.09;5287978;28;20027;-80
2022/01/27 03:23:40;;;;;;;47.55;17.45;;;;;;;4.37;100.00;102719.16;5288737;28;20020;-79
2022/01/27 03:26:11;;;;;;;45.90;17.23;;;;;;;4.36;100.00;102720.91;5266673;28;20471;-80
2022/01/27 03:28:42;;;;;;;41.63;17.17;;;;;;;4.37;100.00;102708.53;5272209;28;20024;-79
2022/01/27 03:31:14;;;;;;;47.83;16.15;;;;;;;4.41;100.00;102713.56;5250941;28;20115;-80
2022/01/27 03:33:44;;;;;;;53.65;17.33;;;;;;;4.38;100.00;102708.44;5266586;28;20031;-80
2022/01/27 03:36:15;;;;;;;49.80;17.42;;;;;;;4.41;100.00;102707.38;5267700;28;20146;-80
2022/01/27 03:38:46;;;;;;;44.60;15.88;;;;;;;4.41;100.00;102708.25;5266388;28;20491;-79
2022/01/27 03:41:20;;;;;;;48.83;17.25;;;;;;;4.40;100.00;102708.34;5248483;28;20115;-80
2022/01/27 03:43:51;;;;;;;48.78;17.25;;;;;;;4.46;100.00;102699.19;5266628;28;20024;-80
2022/01/27 03:46:22;;;;;;;53.03;17.45;;;;;;;4.33;100.00;102688.34;5266232;28;20028;-80
2022/01/27 03:48:52;;;;;;;51.10;17.83;;;;;;;4.36;100.00;102682.84;5283545;28;20498;-80
2022/01/27 03:51:23;;;;;;;50.35;16.63;;;;;;;4.33;100.00;102665.28;5287759;28;20016;-80
2022/01/27 03:53:53;;;;;;;46.47;16.15;;;;;;;4.28;100.00;102677.13;5288192;28;20038;-80
2022/01/27 03:56:24;;;;;;;50.17;18.35;;;;;;;4.22;100.00;102682.72;5287459;28;20114;-79
2022/01/27 03:58:54;;;;;;;50.35;17.10;;;;;;;4.18;100.00;102681.19;5287021;28;20546;-79
2022/01/27 04:01:25;;;;;;;52.08;16.85;;;;;;;4.15;100.00;102676.88;5287597;28;20023;-79
2022/01/27 04:03:58;;;;;;;43.92;18.55;;;;;;;4.18;100.00;102683.84;5287501;28;20018;-79
2022/01/27 04:09:18;;;;;;;57.80;18.25;;;;;;;4.26;100.00;102663.88;5286718;28;20022;-79
2022/01/27 04:11:49;;;;;;;50.25;17.63;;;;;;;4.28;100.00;102662.03;5273083;28;20030;-80
2022/01/27 04:14:19;;;;;;;52.22;16.65;;;;;;;4.26;100.00;102666.53;5289509;28;20016;-79
2022/01/27 04:16:50;;;;;;;56.03;18.13;;;;;;;4.25;100.00;102664.84;5270302;28;20054;-79
2022/01/27 04:19:21;;;;;;;58.83;18.17;;;;;;;4.29;100.00;102665.53;5287976;28;20020;-80
2022/01/27 04:21:51;;;;;;;50.72;18.75;;;;;;;4.29;100.00;102654.91;5287633;28;20554;-80
2022/01/27 04:24:22;;;;;;;55.08;18.75;;;;;;;4.18;100.00;102657.28;5286694;28;20024;-79
2022/01/27 04:27:00;;;;;;;53.13;21.33;;;;;;;4.18;100.00;102666.09;5268659;28;20098;-79
2022/01/27 04:29:34;;;;;;;58.42;21.88;;;;;;;4.16;100.00;102662.66;5286875;28;20024;-79
2022/01/27 04:32:08;;;;;;;54.80;19.63;;;;;;;4.15;100.00;102653.81;5267645;28;20043;-80
2022/01/27 04:34:42;;;;;;;54.20;19.25;;;;;;;4.22;100.00;102654.38;5286720;28;20048;-79
2022/01/27 04:37:13;;;;;;;153.05;47.70;;;;;;;4.26;100.00;102655.06;5286935;28;20027;-79
2022/01/27 04:39:56;;;;;;;51.58;19.27;;;;;;;4.28;100.00;102648.75;5287050;28;20024;-80
2022/01/27 04:42:40;;;;;;;51.17;18.73;;;;;;;4.26;100.00;102655.06;5286828;28;20030;-79
2022/01/27 04:45:13;;;;;;;49.70;17.38;;;;;;;4.28;100.00;102654.06;5275412;28;20391;-79
2022/01/27 04:47:48;;;;;;;54.95;19.73;;;;;;;4.26;100.00;102644.44;5248567;28;20053;-80
2022/01/27 04:50:19;;;;;;;52.75;19.42;;;;;;;4.28;100.00;102637.25;5266162;28;20118;-80
2022/01/27 04:52:52;;;;;;;48.42;17.58;;;;;;;4.24;100.00;102633.03;5273098;28;20589;-80
2022/01/27 04:55:24;;;;;;;51.38;19.40;;;;;;;4.09;100.00;102626.75;5270358;28;20051;-80
2022/01/27 04:58:07;;;;;;;55.53;19.55;;;;;;;4.02;100.00;102617.41;5256389;28;20045;-81
2022/01/27 05:00:37;;;;;;;54.55;19.45;;;;;;;3.93;100.00;102612.56;5282331;28;20024;-79
2022/01/27 05:05:56;;;;;;;63.90;21.83;;;;;;;3.88;100.00;102607.47;5275025;28;20028;-82
2022/01/27 05:08:26;;;;;;;63.60;21.33;;;;;;;3.85;100.00;102605.84;5273044;28;20031;-81
2022/01/27 05:11:01;;;;;;;63.42;23.25;;;;;;;3.81;100.00;102614.88;5265429;28;20035;-81
2022/01/27 05:13:40;;;;;;;;;;;;;;;3.71;100.00;102616.31;5249334;28;20035;-81
2022/01/27 05:16:10;;;;;;;62.17;24.17;;;;;;;3.65;100.00;102608.66;5248010;28;19908;-81
2022/01/27 05:18:41;;;;;;;73.80;21.75;;;;;;;3.64;100.00;102615.75;5258519;28;20501;-80
2022/01/27 05:21:11;;;;;;;67.10;22.25;;;;;;;3.55;100.00;102597.66;5286959;28;20115;-81
2022/01/27 05:23:42;;;;;;;71.13;23.67;;;;;;;3.56;100.00;102606.47;5287012;28;20015;-81
2022/01/27 05:26:12;;;;;;;67.38;24.92;;;;;;;3.56;100.00;102607.31;5286755;28;20124;-81
2022/01/27 05:28:43;;;;;;;66.25;23.48;;;;;;;3.56;100.00;102599.34;5267777;28;20111;-81
2022/01/27 05:31:14;;;;;;;71.10;23.48;;;;;;;3.58;100.00;102599.31;5272795;28;20059;-81
2022/01/27 05:33:44;;;;;;;70.97;23.48;;;;;;;3.56;100.00;102590.53;5248509;28;20024;-81
2022/01/27 05:36:15;;;;;;;74.32;24.15;;;;;;;3.59;100.00;102593.06;5263427;28;20028;-81
2022/01/27 05:38:45;;;;;;;76.10;23.55;;;;;;;3.60;100.00;102592.97;5268499;28;20027;-83
2022/01/27 05:41:16;;;;;;;67.60;23.20;;;;;;;3.66;100.00;102610.38;5268325;28;20501;-80
2022/01/27 05:43:47;;;;;;;65.65;23.13;;;;;;;3.62;100.00;102611.50;5268584;28;20391;-80
2022/01/27 05:46:17;;;;;;;72.07;24.20;;;;;;;3.64;100.00;102605.16;5267840;28;20028;-81
2022/01/27 05:48:48;;;;;;;69.20;24.85;;;;;;;3.66;100.00;102591.78;5286274;28;20110;-80
2022/01/27 05:51:18;;;;;;;75.38;24.02;;;;;;;3.66;100.00;102589.13;5267892;28;20495;-80
2022/01/27 05:53:49;;;;;;;68.95;23.63;;;;;;;3.65;100.00;102587.41;5286406;28;20030;-80
2022/01/27 05:56:19;;;;;;;67.80;23.38;;;;;;;3.69;100.00;102578.38;5286432;28;20054;-85
2022/01/27 05:58:50;;;;;;;66.47;23.90;;;;;;;3.70;100.00;102574.78;5269356;28;20278;-84
2022/01/27 06:01:20;;;;;;;71.10;22.42;;;;;;;3.74;100.00;102568.38;5248686;28;20102;-79
2022/01/27 06:03:52;;;;;;;79.40;25.05;;;;;;;3.75;100.00;102558.59;5285416;28;20092;-78
2022/01/27 06:06:22;;;;;;;80.85;24.50;;;;;;;3.81;100.00;102559.13;5285743;28;20551;-78
2022/01/27 06:08:53;;;;;;;73.40;26.20;;;;;;;3.84;100.00;102545.72;5285588;28;20027;-79
2022/01/27 06:11:23;;;;;;;71.32;24.45;;;;;;;3.89;100.00;102566.72;5267922;28;20490;-79
2022/01/27 06:13:54;;;;;;;69.30;23.65;;;;;;;3.92;100.00;102549.78;5285631;28;20028;-80
2022/01/27 06:16:24;;;;;;;93.05;41.70;;;;;;;3.97;100.00;102551.25;5267523;28;20036;-79
2022/01/27 06:18:55;;;;;;;75.45;24.77;;;;;;;3.96;100.00;102565.44;5286151;28;20031;-79
2022/01/27 06:21:25;;;;;;;75.15;24.75;;;;;;;4.00;100.00;102574.09;5286098;28;20027;-79
2022/01/27 06:23:56;;;;;;;82.25;27.38;;;;;;;3.99;100.00;102567.09;5285824;28;20143;-80
2022/01/27 06:26:29;;;;;;;71.40;24.48;;;;;;;4.04;100.00;102563.25;5285496;28;20024;-80
2022/01/27 06:29:00;;;;;;;72.30;24.40;;;;;;;4.09;100.00;102566.50;5290868;28;20089;-80
2022/01/27 06:31:30;;;;;;;75.40;23.90;;;;;;;4.16;100.00;102565.22;5263113;28;20493;-80
2022/01/27 06:34:01;;;;;;;73.60;24.33;;;;;;;4.25;100.00;102565.69;5288197;28;20028;-80
2022/01/27 06:36:31;;;;;;;73.63;23.27;;;;;;;4.31;100.00;102550.25;5289961;28;20023;-78
2022/01/27 06:39:02;;;;;;;71.88;22.77;;;;;;;4.38;100.00;102554.31;5288623;28;20432;-78
2022/01/27 06:41:33;;;;;;;62.17;22.42;;;;;;;4.44;100.00;102562.88;5289269;28;20027;-79
2022/01/27 06:44:05;;;;;;;62.92;22.23;;;;;;;4.50;100.00;102560.72;5289750;28;20046;-79
2022/01/27 06:46:35;;;;;;;63.58;22.88;;;;;;;4.57;100.00;102553.28;5289735;28;20376;-79
2022/01/27 06:49:06;;;;;;;69.63;23.70;;;;;;;4.63;100.00;102553.78;5272199;28;20030;-79
2022/01/27 06:51:37;;;;;;;66.88;22.73;;;;;;;4.70;100.00;102548.97;5271794;28;20058;-79
2022/01/27 06:54:07;;;;;;;67.82;25.55;;;;;;;4.70;100.00;102538.34;5271580;28;20503;-79
2022/01/27 06:56:39;;;;;;;70.88;23.00;;;;;;;4.75;100.00;102546.91;5289516;28;20026;-79
2022/01/27 06:59:10;;;;;;;68.53;23.95;;;;;;;4.75;100.00;102538.09;5291572;28;20025;-79
2022/01/27 07:01:41;;;;;;;65.03;21.83;;;;;;;4.79;100.00;102526.34;5287866;28;20031;-79
2022/01/27 07:04:11;;;;;;;65.80;21.92;;;;;;;4.84;100.00;102514.50;5273382;28;20079;-79
2022/01/27 07:06:41;;;;;;;59.90;21.23;;;;;;;4.83;100.00;102512.78;5292591;28;20028;-79
2022/01/27 07:09:12;;;;;;;70.90;22.35;;;;;;;4.85;100.00;102505.56;5292711;28;20052;-79
2022/01/27 07:11:42;;;;;;;65.18;23.40;;;;;;;4.86;100.00;102512.59;5292278;28;20027;-78
2022/01/27 07:14:13;;;;;;;59.75;20.45;;;;;;;4.91;100.00;102517.63;5292111;28;20149;-80
2022/01/27 07:16:43;;;;;;;70.30;23.67;;;;;;;5.00;100.00;102534.88;5292851;28;20073;-79
2022/01/27 07:19:14;;;;;;;61.33;21.55;;;;;;;5.02;100.00;102527.66;5293520;28;20027;-79
2022/01/27 07:21:44;;;;;;;57.97;20.63;;;;;;;5.05;100.00;102525.69;5292620;28;20050;-79
2022/01/27 07:24:15;;;;;;;64.75;22.13;;;;;;;5.10;100.00;102526.25;5290924;28;20061;-80
2022/01/27 07:26:45;;;;;;;59.33;20.40;;;;;;;5.15;100.00;102523.34;5275045;28;20038;-78
2022/01/27 07:29:16;;;;;;;60.90;20.70;;;;;;;5.15;100.00;102510.03;5288292;28;20047;-78
2022/01/27 07:31:50;;;;;;;56.35;19.98;;;;;;;5.16;100.00;102506.41;5287901;28;20020;-78
2022/01/27 07:34:20;;;;;;;64.65;22.27;;;;;;;5.25;100.00;102505.03;5272613;28;20430;-78
2022/01/27 07:36:56;;;;;;;53.75;21.27;;;;;;;5.29;100.00;102502.09;5294679;27;20019;-83
2022/01/27 07:39:26;;;;;;;57.63;20.58;;;;;;;5.29;100.00;102525.19;5289869;28;20023;-78
2022/01/27 07:42:00;;;;;;;51.05;18.05;;;;;;;5.33;100.00;102538.22;5288761;28;20039;-77
2022/01/27 07:44:32;;;;;;;55.05;19.92;;;;;;;5.39;100.00;102527.22;5288773;28;20428;-79
2022/01/27 07:47:03;;;;;;;53.75;19.25;;;;;;;5.45;100.00;102524.19;5289665;28;20030;-78
2022/01/27 07:49:34;;;;;;;53.47;19.83;;;;;;;5.45;100.00;102528.66;5290724;28;20023;-79
2022/01/27 07:52:04;;;;;;;226.00;74.35;;;;;;;5.46;100.00;102539.19;5291954;28;20039;-79
2022/01/27 07:54:35;;;;;;;84.90;30.40;;;;;;;5.46;100.00;102528.53;5292608;28;20026;-79
2022/01/27 07:57:05;;;;;;;65.28;24.92;;;;;;;5.52;100.00;102527.31;5274566;28;20032;-79
2022/01/27 07:59:36;;;;;;;57.72;22.17;;;;;;;5.49;100.00;102532.00;5291791;28;20086;-81
2022/01/27 08:02:07;;;;;;;56.35;20.33;;;;;;;5.53;100.00;102534.38;5282704;28;20054;-80
2022/01/27 08:04:37;;;;;;;60.78;24.40;;;;;;;5.52;100.00;102550.41;5268316;28;20027;-80
2022/01/27 08:07:10;;;;;;;54.80;20.63;;;;;;;5.51;100.00;102552.22;5268661;28;20072;-81
2022/01/27 08:09:40;;;;;;;57.00;20.40;;;;;;;5.49;100.00;102553.28;5284743;28;20024;-80
2022/01/27 08:12:11;;;;;;;62.65;20.98;;;;;;;5.50;100.00;102557.66;5286762;28;20030;-80
2022/01/27 08:14:42;;;;;;;67.88;22.30;;;;;;;5.55;100.00;102545.78;5286371;28;20077;-80
2022/01/27 08:17:13;;;;;;;63.17;22.67;;;;;;;5.57;100.00;102558.97;5286669;28;20027;-81
2022/01/27 08:19:44;;;;;;;64.85;21.63;;;;;;;5.58;100.00;102555.41;5286855;28;20016;-82
2022/01/27 08:22:15;;;;;;;58.42;21.50;;;;;;;5.51;100.00;102560.22;5268678;28;20045;-80
2022/01/27 08:24:45;;;;;;;57.85;21.83;;;;;;;5.56;100.00;102557.28;5286272;28;20020;-79
2022/01/27 08:27:19;;;;;;;57.50;20.63;;;;;;;5.54;100.00;102553.88;5286248;28;20389;-80
2022/01/27 08:29:54;;;;;;;61.70;21.25;;;;;;;5.51;100.00;102538.06;5286190;28;20027;-79
2022/01/27 08:35:14;;;;;;;61.28;22.15;;;;;;;5.55;100.00;102535.13;5285910;28;20020;-81
2022/01/27 08:37:45;;;;;;;64.60;19.42;;;;;;;5.58;100.00;102534.94;5269075;28;20027;-82
2022/01/27 08:40:16;;;;;;;67.05;21.98;;;;;;;5.62;100.00;102527.63;5286601;28;20432;-82
2022/01/27 08:42:48;;;;;;;63.67;20.60;;;;;;;5.64;100.00;102539.91;5288718;28;20516;-81
2022/01/27 08:45:21;;;;;;;66.72;21.30;;;;;;;5.61;100.00;102525.91;5269071;28;20030;-81
2022/01/27 08:47:55;;;;;;;59.28;20.02;;;;;;;5.59;100.00;102530.47;5287616;28;20084;-80
2022/01/27 08:50:27;;;;;;;73.72;31.02;;;;;;;5.60;100.00;102530.38;5285013;28;20023;-80
2022/01/27 08:52:57;;;;;;;64.35;23.73;;;;;;;5.64;100.00;102531.06;5286352;28;20494;-80
2022/01/27 08:55:28;;;;;;;65.40;22.20;;;;;;;5.65;100.00;102541.59;5268144;28;20036;-80
2022/01/27 08:57:59;;;;;;;61.70;21.80;;;;;;;5.60;100.00;102537.50;5286729;28;20032;-81
2022/01/27 09:00:29;;;;;;;66.82;25.30;;;;;;;5.68;100.00;102556.56;5286691;28;20028;-81
2022/01/27 09:03:00;;;;;;;62.03;23.95;;;;;;;5.69;100.00;102553.78;5268626;28;20035;-81
2022/01/27 09:05:31;;;;;;;64.45;22.85;;;;;;;5.67;100.00;102546.84;5286581;28;20061;-81
2022/01/27 09:08:02;;;;;;;66.47;23.00;;;;;;;5.67;100.00;102546.84;5251480;28;20019;-80
2022/01/27 09:10:33;;;;;;;66.05;24.35;;;;;;;5.71;100.00;102543.88;5268367;28;20053;-81
2022/01/27 09:13:04;;;;;;;72.80;23.70;;;;;;;5.67;100.00;102545.06;5286375;28;20049;-81
2022/01/27 09:15:34;;;;;;;69.82;24.42;;;;;;;5.65;100.00;102543.41;5267360;28;20019;-81
2022/01/27 09:18:05;;;;;;;74.57;25.42;;;;;;;5.65;100.00;102546.94;5286022;28;20057;-81
2022/01/27 09:20:35;;;;;;;71.47;26.02;;;;;;;5.68;100.00;102543.25;5286273;28;20076;-81
2022/01/27 09:23:12;;;;;;;78.43;25.52;;;;;;;5.71;100.00;102543.03;5285772;28;20029;-81
2022/01/27 09:25:47;;;;;;;82.03;26.48;;;;;;;5.71;100.00;102546.56;5253567;28;20033;-80
2022/01/27 09:28:17;;;;;;;88.93;29.23;;;;;;;5.70;100.00;102541.34;5286453;28;20020;-80
2022/01/27 09:30:48;;;;;;;87.80;30.30;;;;;;;5.68;100.00;102551.22;5284998;28;20099;-80
2022/01/27 09:33:19;;;;;;;88.63;28.92;;;;;;;5.60;100.00;102541.03;5285905;28;20068;-80
2022/01/27 09:35:49;;;;;;;95.70;31.48;;;;;;;5.63;100.00;102542.66;5285703;28;20076;-79
2022/01/27 09:38:20;;;;;;;94.35;27.83;;;;;;;5.56;100.00;102550.16;5267646;28;20032;-79
2022/01/27 09:40:51;;;;;;;92.95;28.85;;;;;;;5.60;100.00;102546.34;5286066;28;20024;-80
2022/01/27 09:43:22;;;;;;;94.32;29.00;;;;;;;5.60;100.00;102546.34;5287213;28;20043;-79
2022/01/27 09:45:54;;;;;;;93.07;29.40;;;;;;;5.61;100.00;102541.88;5268651;28;20094;-79
2022/01/27 09:48:32;;;;;;;95.38;31.90;;;;;;;5.64;100.00;102545.22;5286850;28;20023;-80
2022/01/27 09:53:55;;;;;;;87.88;29.58;;;;;;;5.65;100.00;102549.59;5275026;28;20038;-81
2022/01/27 09:56:25;;;;;;;89.97;27.98;;;;;;;5.70;100.00;102554.66;5288343;28;20073;-80
2022/01/27 09:58:56;;;;;;;97.65;27.83;;;;;;;5.74;100.00;102552.66;5289437;28;20061;-80
2022/01/27 10:01:27;;;;;;;89.97;28.55;;;;;;;5.79;100.00;102550.56;5285437;28;20028;-80
2022/01/27 10:04:00;;;;;;;87.57;28.77;;;;;;;5.78;100.00;102551.53;5292316;28;20153;-79
2022/01/27 10:06:33;;;;;;;90.22;31.77;;;;;;;5.80;100.00;102555.78;5272652;28;20020;-80
2022/01/27 10:09:24;;;;;;;93.45;29.73;;;;;;;5.81;100.00;102554.84;5290333;28;20015;-80
2022/01/27 10:11:54;;;;;;;111.63;32.88;;;;;;;5.83;100.00;102546.78;5291615;28;20035;-79
2022/01/27 10:14:31;;;;;;;91.43;27.77;;;;;;;5.82;100.00;102548.56;5272710;28;20019;-80
2022/01/27 10:17:08;;;;;;;85.35;27.77;;;;;;;5.90;100.00;102551.63;5290669;28;20088;-80
2022/01/27 10:19:39;;;;;;;84.22;27.75;;;;;;;5.97;100.00;102555.66;5277886;28;20627;-79
2022/01/27 10:22:13;;;;;;;92.38;28.80;;;;;;;6.04;100.00;102547.28;5290416;28;20031;-80
2022/01/27 10:24:44;;;;;;;86.38;29.25;;;;;;;6.03;100.00;102549.09;5290193;28;20490;-79
2022/01/27 10:27:45;;;;;;;96.85;29.13;;;;;;;6.10;100.00;102560.22;5290364;28;20112;-79
2022/01/27 10:33:11;;;;;;;106.75;33.90;;;;;;;6.15;100.00;102552.78;5279830;28;20034;-79
2022/01/27 10:35:42;;;;;;;91.43;30.38;;;;;;;6.14;100.00;102562.59;5291050;28;20027;-83
2022/01/27 10:38:14;;;;;;;143.52;52.60;;;;;;;6.14;100.00;102564.41;5255546;28;20016;-80
2022/01/27 10:40:48;;;;;;;119.68;37.53;;;;;;;6.20;100.00;102556.88;5289459;28;20081;-79
2022/01/27 10:43:22;;;;;;;116.47;38.37;;;;;;;6.22;100.00;102559.44;5288933;28;20524;-80
2022/01/27 10:49:04;;;;;;;93.72;33.20;;;;;;;6.33;100.00;102561.47;5288467;28;20031;-82
2022/01/27 10:51:44;;;;;;;83.43;29.25;;;;;;;6.34;100.00;102555.16;5270636;28;20028;-77
2022/01/27 10:57:04;;;;;;;75.25;28.08;;;;;;;6.31;100.00;102553.53;5276854;28;20070;-79
2022/01/27 10:59:36;;;;;;;78.43;27.00;;;;;;;6.33;100.00;102548.13;5270209;28;20496;-79
2022/01/27 11:02:10;;;;;;;73.15;25.40;;;;;;;6.32;100.00;102549.91;5284115;28;20047;-78
2022/01/27 11:04:42;;;;;;;86.15;27.83;;;;;;;6.36;100.00;102554.09;5288558;28;20359;-79
2022/01/27 11:07:16;;;;;;;92.40;30.95;;;;;;;6.32;100.00;102547.25;5289109;28;20016;-79
2022/01/27 11:09:47;;;;;;;60.78;25.00;;;;;;;6.33;100.00;102546.31;5305133;28;20027;-79
2022/01/27 11:12:18;;;;;;;70.50;24.77;;;;;;;6.38;100.00;102538.03;5309566;28;20065;-79
2022/01/27 11:14:50;;;;;;;72.35;25.67;;;;;;;6.38;100.00;102546.03;5298319;28;20027;-79
2022/01/27 11:17:21;;;;;;;73.55;25.15;;;;;;;6.37;100.00;102542.47;5270746;28;20022;-79
2022/01/27 11:22:41;;;;;;;81.15;27.63;;;;;;;6.42;100.00;102527.03;5287917;28;20145;-79
2022/01/27 11:27:48;;;;;;;68.82;28.95;;;;;;;6.49;100.00;102517.72;5288645;28;20016;-79
2022/01/27 11:30:33;;;;;;;60.37;23.27;;;;;;;6.55;100.00;102521.78;5288531;28;20027;-79
2022/01/27 11:33:08;;;;;;;66.57;25.77;;;;;;;6.53;100.00;102521.06;5278133;28;20345;-80
2022/01/27 11:35:39;;;;;;;61.13;22.70;;;;;;;6.52;100.00;102521.97;5288174;28;20582;-80
2022/01/27 11:38:10;;;;;;;105.25;37.90;;;;;;;6.61;100.00;102523.19;5288109;28;20073;-80
2022/01/27 11:40:45;;;;;;;59.78;24.95;;;;;;;6.62;100.00;102528.44;5288132;28;20062;-80
2022/01/27 11:43:17;;;;;;;73.53;28.27;;;;;;;6.64;100.00;102523.00;5288720;28;20039;-79
2022/01/27 11:45:52;;;;;;;65.47;23.70;;;;;;;6.65;100.00;102516.72;5270140;28;20496;-80
2022/01/27 11:48:25;;;;;;;66.60;23.10;;;;;;;6.65;100.00;102517.56;5270340;28;20039;-80
2022/01/27 11:51:13;;;;;;;53.72;21.30;;;;;;;6.69;100.00;102515.56;5288845;28;20053;-80
2022/01/27 11:53:48;;;;;;;54.88;21.85;;;;;;;6.74;100.00;102522.31;5270958;28;20019;-80
2022/01/27 11:56:38;;;;;;;70.22;28.13;;;;;;;6.77;100.00;102507.03;5289649;28;20165;-80
2022/01/27 11:59:09;;;;;;;72.15;28.40;;;;;;;6.81;100.00;102509.41;5289485;28;20026;-80
2022/01/27 12:01:40;;;;;;;58.20;24.77;;;;;;;6.91;100.00;102510.50;5269066;28;20059;-80
2022/01/27 12:04:15;;;;;;;59.50;23.60;;;;;;;6.91;100.00;102512.34;5289194;28;20111;-80
2022/01/27 12:07:04;;;;;;;69.38;26.80;;;;;;;6.95;100.00;102509.38;5276510;28;20037;-80
2022/01/27 12:09:35;;;;;;;66.45;24.95;;;;;;;6.97;100.00;102504.75;5271629;28;20023;-80
2022/01/27 12:15:00;;;;;;;72.63;28.17;;;;;;;7.04;100.00;102501.72;5276779;28;20114;-78
2022/01/27 12:17:34;;;;;;;58.83;24.15;;;;;;;7.11;100.00;102500.31;5289714;28;20024;-78
2022/01/27 12:20:08;;;;;;;66.10;24.27;;;;;;;7.12;100.00;102496.69;5289958;28;20027;-78
2022/01/27 12:22:42;;;;;;;56.08;20.85;;;;;;;7.13;100.00;102496.59;5271232;28;20020;-78
2022/01/27 12:25:13;;;;;;;65.28;24.00;;;;;;;7.19;100.00;102493.53;5289614;28;20504;-78
2022/01/27 12:28:01;;;;;;;61.67;24.42;;;;;;;7.25;100.00;102485.09;5289906;28;20023;-78
2022/01/27 12:30:32;;;;;;;59.65;23.35;;;;;;;7.26;100.00;102488.59;5288275;28;20094;-78
2022/01/27 12:33:02;;;;;;;53.95;22.02;;;;;;;7.30;100.00;102490.13;5271175;28;20458;-78
2022/01/27 12:35:33;;;;;;;60.45;22.85;;;;;;;7.36;100.00;102483.50;5289682;28;20051;-78
2022/01/27 12:38:03;;;;;;;51.90;20.40;;;;;;;7.35;100.00;102479.13;5271094;28;20020;-78